sensor_id;sensor_type;location;lat;lon;timestamp;pressure;altitude;pressure_sealevel;temperature;humidity
15308;BME280;7755;52.208;6.964;2023-02-16T00:03:21;101992.56;;;5.88;100.00
15308;BME280;7755;52.208;6.964;2023-02-16T00:07:26;101989.03;;;5.88;100.00
15308;BME280;7755;52.208;6.964;2023-02-16T00:11:31;101986.19;;;5.89;100.00
15308;BME280;7755;52.208;6.964;2023-02-16T00:15:52;101991.56;;;5.89;100.00
15308;BME280;7755;52.208;6.964;2023-02-16T00:19:55;101984.47;;;5.88;100.00
15308;BME280;7755;52.208;6.964;2023-02-16T00:24:01;101988.19;;;5.87;100.00
15308;BME280;7755;52.208;6.964;2023-02-16T00:28:09;101983.63;;;5.88;100.00
15308;BME280;7755;52.208;6.964;2023-02-16T00:32:15;101973.84;;;5.87;100.00
15308;BME280;7755;52.208;6.964;2023-02-16T00:36:18;101975.91;;;5.85;100.00
15308;BME280;7755;52.208;6.964;2023-02-16T00:40:23;101962.59;;;5.83;100.00
15308;BME280;7755;52.208;6.964;2023-02-16T00:44:30;101962.09;;;5.80;100.00
15308;BME280;7755;52.208;6.964;2023-02-16T00:48:34;101971.56;;;5.75;100.00
15308;BME280;7755;52.208;6.964;2023-02-16T00:52:38;101965.03;;;5.70;100.00
15308;BME280;7755;52.208;6.964;2023-02-16T00:56:45;101976.16;;;5.67;100.00
15308;BME280;7755;52.208;6.964;2023-02-16T01:00:50;101972.31;;;5.61;100.00
15308;BME280;7755;52.208;6.964;2023-02-16T01:04:54;101978.91;;;5.59;100.00
15308;BME280;7755;52.208;6.964;2023-02-16T01:09:08;101981.09;;;5.55;100.00
15308;BME280;7755;52.208;6.964;2023-02-16T01:13:36;101978.97;;;5.51;100.00
15308;BME280;7755;52.208;6.964;2023-02-16T01:17:40;101977.63;;;5.46;100.00
15308;BME280;7755;52.208;6.964;2023-02-16T01:21:43;101976.78;;;5.46;100.00
15308;BME280;7755;52.208;6.964;2023-02-16T01:25:46;101970.38;;;5.47;100.00
15308;BME280;7755;52.208;6.964;2023-02-16T01:29:52;101975.09;;;5.45;100.00
15308;BME280;7755;52.208;6.964;2023-02-16T01:33:55;101964.31;;;5.45;100.00
15308;BME280;7755;52.208;6.964;2023-02-16T01:37:58;101974.72;;;5.48;100.00
15308;BME280;7755;52.208;6.964;2023-02-16T01:42:22;101965.81;;;5.47;100.00
15308;BME280;7755;52.208;6.964;2023-02-16T01:46:38;101974.72;;;5.48;100.00
15308;BME280;7755;52.208;6.964;2023-02-16T01:50:45;101970.19;;;5.48;100.00
15308;BME280;7755;52.208;6.964;2023-02-16T01:54:53;101961.09;;;5.50;100.00
15308;BME280;7755;52.208;6.964;2023-02-16T01:59:00;101948.78;;;5.47;100.00
15308;BME280;7755;52.208;6.964;2023-02-16T02:03:11;101963.28;;;5.46;100.00
15308;BME280;7755;52.208;6.964;2023-02-16T02:07:36;101955.19;;;5.46;100.00
15308;BME280;7755;52.208;6.964;2023-02-16T02:11:44;101956.22;;;5.45;100.00
15308;BME280;7755;52.208;6.964;2023-02-16T02:15:48;101945.63;;;5.43;100.00
15308;BME280;7755;52.208;6.964;2023-02-16T02:20:00;101935.34;;;5.39;100.00
15308;BME280;7755;52.208;6.964;2023-02-16T02:24:35;101935.53;;;5.37;100.00
15308;BME280;7755;52.208;6.964;2023-02-16T02:28:52;101930.97;;;5.38;100.00
15308;BME280;7755;52.208;6.964;2023-02-16T02:33:10;101922.38;;;5.34;100.00
15308;BME280;7755;52.208;6.964;2023-02-16T02:37:21;101920.88;;;5.32;100.00
15308;BME280;7755;52.208;6.964;2023-02-16T02:41:31;101909.44;;;5.30;100.00
15308;BME280;7755;52.208;6.964;2023-02-16T02:45:54;101904.38;;;5.27;100.00
15308;BME280;7755;52.208;6.964;2023-02-16T02:49:58;101899.38;;;5.24;100.00
15308;BME280;7755;52.208;6.964;2023-02-16T02:54:05;101900.91;;;5.18;100.00
15308;BME280;7755;52.208;6.964;2023-02-16T02:58:33;101897.88;;;5.13;100.00
15308;BME280;7755;52.208;6.964;2023-02-16T03:03:13;101905.66;;;5.08;100.00
15308;BME280;7755;52.208;6.964;2023-02-16T03:07:17;101908.06;;;5.03;100.00
15308;BME280;7755;52.208;6.964;2023-02-16T03:11:25;101895.75;;;5.00;100.00
15308;BME280;7755;52.208;6.964;2023-02-16T03:15:50;101893.22;;;4.99;100.00
15308;BME280;7755;52.208;6.964;2023-02-16T03:19:59;101884.50;;;4.97;100.00
15308;BME280;7755;52.208;6.964;2023-02-16T03:24:25;101887.03;;;4.90;100.00
15308;BME280;7755;52.208;6.964;2023-02-16T03:28:47;101880.81;;;4.89;100.00
15308;BME280;7755;52.208;6.964;2023-02-16T03:33:08;101889.59;;;4.83;100.00
15308;BME280;7755;52.208;6.964;2023-02-16T03:37:12;101890.94;;;4.79;100.00
15308;BME280;7755;52.208;6.964;2023-02-16T03:41:16;101883.69;;;4.80;100.00
15308;BME280;7755;52.208;6.964;2023-02-16T03:45:21;101873.94;;;4.79;100.00
15308;BME280;7755;52.208;6.964;2023-02-16T03:49:24;101894.84;;;4.77;100.00
15308;BME280;7755;52.208;6.964;2023-02-16T03:53:29;101881.03;;;4.72;100.00
15308;BME280;7755;52.208;6.964;2023-02-16T03:57:31;101888.09;;;4.73;100.00
15308;BME280;7755;52.208;6.964;2023-02-16T04:01:34;101887.25;;;4.72;100.00
15308;BME280;7755;52.208;6.964;2023-02-16T04:05:37;101889.28;;;4.70;100.00
15308;BME280;7755;52.208;6.964;2023-02-16T04:09:42;101889.94;;;4.72;100.00
15308;BME280;7755;52.208;6.964;2023-02-16T04:13:45;101882.56;;;4.74;100.00
15308;BME280;7755;52.208;6.964;2023-02-16T04:17:48;101885.41;;;4.73;100.00
15308;BME280;7755;52.208;6.964;2023-02-16T04:21:51;101895.00;;;4.75;100.00
15308;BME280;7755;52.208;6.964;2023-02-16T04:25:55;101892.97;;;4.77;100.00
15308;BME280;7755;52.208;6.964;2023-02-16T04:29:58;101889.63;;;4.75;100.00
15308;BME280;7755;52.208;6.964;2023-02-16T04:34:01;101896.88;;;4.75;100.00
15308;BME280;7755;52.208;6.964;2023-02-16T04:38:04;101895.16;;;4.74;100.00
15308;BME280;7755;52.208;6.964;2023-02-16T04:42:08;101893.81;;;4.78;100.00
15308;BME280;7755;52.208;6.964;2023-02-16T04:46:11;101882.38;;;4.76;100.00
15308;BME280;7755;52.208;6.964;2023-02-16T04:50:14;101882.38;;;4.76;100.00
15308;BME280;7755;52.208;6.964;2023-02-16T04:54:17;101883.22;;;4.76;100.00
15308;BME280;7755;52.208;6.964;2023-02-16T04:58:21;101890.47;;;4.76;100.00
15308;BME280;7755;52.208;6.964;2023-02-16T05:02:24;101884.91;;;4.77;100.00
15308;BME280;7755;52.208;6.964;2023-02-16T05:06:27;101873.47;;;4.75;100.00
15308;BME280;7755;52.208;6.964;2023-02-16T05:10:30;101885.72;;;4.78;100.00
15308;BME280;7755;52.208;6.964;2023-02-16T05:14:34;101886.38;;;4.80;100.00
15308;BME280;7755;52.208;6.964;2023-02-16T05:18:43;101885.22;;;4.82;100.00
15308;BME280;7755;52.208;6.964;2023-02-16T05:22:46;101883.38;;;4.83;100.00
15308;BME280;7755;52.208;6.964;2023-02-16T05:26:48;101888.56;;;4.84;100.00
15308;BME280;7755;52.208;6.964;2023-02-16T05:30:53;101893.13;;;4.84;100.00
15308;BME280;7755;52.208;6.964;2023-02-16T05:34:56;101892.09;;;4.85;100.00
15308;BME280;7755;52.208;6.964;2023-02-16T05:38:59;101892.44;;;4.90;100.00
15308;BME280;7755;52.208;6.964;2023-02-16T05:43:02;101893.94;;;4.92;100.00
15308;BME280;7755;52.208;6.964;2023-02-16T05:47:06;101895.28;;;4.97;100.00
15308;BME280;7755;52.208;6.964;2023-02-16T05:51:09;101892.22;;;5.00;100.00
15308;BME280;7755;52.208;6.964;2023-02-16T05:55:12;101887.31;;;5.03;100.00
15308;BME280;7755;52.208;6.964;2023-02-16T05:59:16;101880.56;;;5.07;100.00
15308;BME280;7755;52.208;6.964;2023-02-16T06:03:20;101869.78;;;5.07;100.00
15308;BME280;7755;52.208;6.964;2023-02-16T06:07:23;101865.53;;;5.13;100.00
15308;BME280;7755;52.208;6.964;2023-02-16T06:11:26;101872.78;;;5.12;100.00
15308;BME280;7755;52.208;6.964;2023-02-16T06:15:38;101877.66;;;5.17;100.00
15308;BME280;7755;52.208;6.964;2023-02-16T06:19:42;101873.09;;;5.17;100.00
15308;BME280;7755;52.208;6.964;2023-02-16T06:23:45;101871.91;;;5.20;100.00
15308;BME280;7755;52.208;6.964;2023-02-16T06:27:48;101866.00;;;5.25;100.00
15308;BME280;7755;52.208;6.964;2023-02-16T06:31:53;101865.09;;;5.32;100.00
15308;BME280;7755;52.208;6.964;2023-02-16T06:35:57;101865.94;;;5.33;100.00
15308;BME280;7755;52.208;6.964;2023-02-16T06:40:00;101872.16;;;5.33;100.00
15308;BME280;7755;52.208;6.964;2023-02-16T06:44:05;101870.16;;;5.35;100.00
15308;BME280;7755;52.208;6.964;2023-02-16T06:48:08;101864.75;;;5.35;100.00
15308;BME280;7755;52.208;6.964;2023-02-16T06:52:12;101855.66;;;5.36;100.00
15308;BME280;7755;52.208;6.964;2023-02-16T06:56:15;101867.94;;;5.39;100.00
15308;BME280;7755;52.208;6.964;2023-02-16T07:00:18;101871.47;;;5.39;100.00
15308;BME280;7755;52.208;6.964;2023-02-16T07:04:21;101885.91;;;5.46;100.00
15308;BME280;7755;52.208;6.964;2023-02-16T07:08:25;101888.59;;;5.46;100.00
15308;BME280;7755;52.208;6.964;2023-02-16T07:12:28;101883.03;;;5.48;100.00
15308;BME280;7755;52.208;6.964;2023-02-16T07:16:31;101894.50;;;5.50;100.00
15308;BME280;7755;52.208;6.964;2023-02-16T07:20:34;101889.25;;;5.57;100.00
15308;BME280;7755;52.208;6.964;2023-02-16T07:24:39;101890.00;;;5.65;100.00
15308;BME280;7755;52.208;6.964;2023-02-16T07:28:42;101886.09;;;5.68;100.00
15308;BME280;7755;52.208;6.964;2023-02-16T07:32:45;101893.69;;;5.72;100.00
15308;BME280;7755;52.208;6.964;2023-02-16T07:36:48;101904.59;;;5.79;100.00
15308;BME280;7755;52.208;6.964;2023-02-16T07:40:52;101908.63;;;5.83;100.00
15308;BME280;7755;52.208;6.964;2023-02-16T07:44:55;101907.91;;;5.89;100.00
15308;BME280;7755;52.208;6.964;2023-02-16T07:48:58;101909.59;;;5.90;100.00
15308;BME280;7755;52.208;6.964;2023-02-16T07:53:01;101906.19;;;5.96;100.00
15308;BME280;7755;52.208;6.964;2023-02-16T07:57:05;101889.44;;;6.01;100.00
15308;BME280;7755;52.208;6.964;2023-02-16T08:01:10;101891.59;;;6.06;100.00
15308;BME280;7755;52.208;6.964;2023-02-16T08:05:16;101905.22;;;6.12;100.00
15308;BME280;7755;52.208;6.964;2023-02-16T08:09:19;101898.59;;;6.15;100.00
15308;BME280;7755;52.208;6.964;2023-02-16T08:13:23;101902.13;;;6.15;100.00
15308;BME280;7755;52.208;6.964;2023-02-16T08:17:26;101892.66;;;6.19;100.00
15308;BME280;7755;52.208;6.964;2023-02-16T08:21:30;101906.16;;;6.19;100.00
15308;BME280;7755;52.208;6.964;2023-02-16T08:25:33;101905.25;;;6.27;100.00
15308;BME280;7755;52.208;6.964;2023-02-16T08:29:38;101916.53;;;6.31;100.00
15308;BME280;7755;52.208;6.964;2023-02-16T08:33:42;101920.72;;;6.33;100.00
15308;BME280;7755;52.208;6.964;2023-02-16T08:37:45;101921.38;;;6.35;100.00
15308;BME280;7755;52.208;6.964;2023-02-16T08:41:49;101923.16;;;6.43;100.00
15308;BME280;7755;52.208;6.964;2023-02-16T08:45:53;101921.69;;;6.55;100.00
15308;BME280;7755;52.208;6.964;2023-02-16T08:49:56;101928.03;;;6.62;100.00
15308;BME280;7755;52.208;6.964;2023-02-16T08:54:00;101930.50;;;6.72;100.00
15308;BME280;7755;52.208;6.964;2023-02-16T08:58:06;101932.44;;;6.78;100.00
15308;BME280;7755;52.208;6.964;2023-02-16T09:02:10;101934.56;;;6.82;100.00
15308;BME280;7755;52.208;6.964;2023-02-16T09:06:15;101940.28;;;6.88;100.00
15308;BME280;7755;52.208;6.964;2023-02-16T09:10:18;101942.25;;;6.94;100.00
15308;BME280;7755;52.208;6.964;2023-02-16T09:14:22;101934.22;;;7.00;100.00
15308;BME280;7755;52.208;6.964;2023-02-16T09:18:27;101937.47;;;7.10;100.00
15308;BME280;7755;52.208;6.964;2023-02-16T09:22:29;101926.75;;;7.17;100.00
15308;BME280;7755;52.208;6.964;2023-02-16T09:26:35;101919.94;;;7.21;100.00
15308;BME280;7755;52.208;6.964;2023-02-16T09:30:39;101921.50;;;7.30;100.00
15308;BME280;7755;52.208;6.964;2023-02-16T09:34:43;101927.66;;;7.39;100.00
15308;BME280;7755;52.208;6.964;2023-02-16T09:38:46;101921.31;;;7.47;100.00
15308;BME280;7755;52.208;6.964;2023-02-16T09:42:58;101914.94;;;7.54;100.00
15308;BME280;7755;52.208;6.964;2023-02-16T09:47:21;101919.13;;;7.57;100.00
15308;BME280;7755;52.208;6.964;2023-02-16T09:51:32;101922.28;;;7.60;100.00
15308;BME280;7755;52.208;6.964;2023-02-16T09:55:40;101912.56;;;7.66;100.00
15308;BME280;7755;52.208;6.964;2023-02-16T09:59:51;101928.63;;;7.68;100.00
15308;BME280;7755;52.208;6.964;2023-02-16T10:04:06;101922.56;;;7.65;100.00
15308;BME280;7755;52.208;6.964;2023-02-16T10:08:18;101923.47;;;7.73;100.00
15308;BME280;7755;52.208;6.964;2023-02-16T10:12:26;101922.44;;;7.74;100.00
15308;BME280;7755;52.208;6.964;2023-02-16T10:16:34;101926.63;;;7.76;100.00
15308;BME280;7755;52.208;6.964;2023-02-16T10:20:41;101949.31;;;7.75;100.00
15308;BME280;7755;52.208;6.964;2023-02-16T10:24:56;101944.34;;;7.79;100.00
15308;BME280;7755;52.208;6.964;2023-02-16T10:29:05;101940.44;;;7.81;100.00
15308;BME280;7755;52.208;6.964;2023-02-16T10:33:13;101948.16;;;7.84;100.00
15308;BME280;7755;52.208;6.964;2023-02-16T10:37:32;101945.28;;;7.86;100.00
15308;BME280;7755;52.208;6.964;2023-02-16T10:41:43;101946.34;;;7.91;100.00
15308;BME280;7755;52.208;6.964;2023-02-16T10:45:50;101943.06;;;7.96;100.00
15308;BME280;7755;52.208;6.964;2023-02-16T10:49:54;101935.00;;;8.03;100.00
15308;BME280;7755;52.208;6.964;2023-02-16T10:54:00;101926.56;;;8.12;100.00
15308;BME280;7755;52.208;6.964;2023-02-16T10:58:14;101918.50;;;8.19;100.00
15308;BME280;7755;52.208;6.964;2023-02-16T11:02:19;101922.09;;;8.26;100.00
15308;BME280;7755;52.208;6.964;2023-02-16T11:06:25;101918.81;;;8.31;100.00
15308;BME280;7755;52.208;6.964;2023-02-16T11:10:39;101914.63;;;8.28;100.00
15308;BME280;7755;52.208;6.964;2023-02-16T11:14:48;101899.41;;;8.27;100.00
15308;BME280;7755;52.208;6.964;2023-02-16T11:18:57;101924.56;;;8.42;100.00
15308;BME280;7755;52.208;6.964;2023-02-16T11:23:16;101921.28;;;8.47;100.00
15308;BME280;7755;52.208;6.964;2023-02-16T11:27:23;101912.94;;;8.48;100.00
15308;BME280;7755;52.208;6.964;2023-02-16T11:31:31;101916.09;;;8.52;100.00
15308;BME280;7755;52.208;6.964;2023-02-16T11:35:41;101906.13;;;8.59;100.00
15308;BME280;7755;52.208;6.964;2023-02-16T11:39:50;101899.06;;;8.65;100.00
15308;BME280;7755;52.208;6.964;2023-02-16T11:43:55;101892.19;;;8.62;100.00
15308;BME280;7755;52.208;6.964;2023-02-16T11:48:01;101894.91;;;8.62;100.00
15308;BME280;7755;52.208;6.964;2023-02-16T11:52:24;101888.84;;;8.60;100.00
15308;BME280;7755;52.208;6.964;2023-02-16T11:56:29;101893.03;;;8.63;100.00
15308;BME280;7755;52.208;6.964;2023-02-16T12:00:32;101905.34;;;8.65;100.00
15308;BME280;7755;52.208;6.964;2023-02-16T12:04:53;101906.91;;;8.53;100.00
15308;BME280;7755;52.208;6.964;2023-02-16T12:09:11;101902.31;;;8.47;100.00
15308;BME280;7755;52.208;6.964;2023-02-16T12:13:25;101904.75;;;8.42;100.00
15308;BME280;7755;52.208;6.964;2023-02-16T12:17:46;101915.56;;;8.35;100.00
15308;BME280;7755;52.208;6.964;2023-02-16T12:21:59;101911.72;;;8.30;100.00
15308;BME280;7755;52.208;6.964;2023-02-16T12:26:27;101918.38;;;8.27;100.00
15308;BME280;7755;52.208;6.964;2023-02-16T12:30:43;101908.47;;;8.19;100.00
15308;BME280;7755;52.208;6.964;2023-02-16T12:34:56;101895.28;;;8.10;100.00
15308;BME280;7755;52.208;6.964;2023-02-16T12:39:15;101891.47;;;8.04;100.00
15308;BME280;7755;52.208;6.964;2023-02-16T12:43:31;101895.03;;;8.05;100.00
15308;BME280;7755;52.208;6.964;2023-02-16T12:47:40;101885.63;;;8.01;100.00
15308;BME280;7755;52.208;6.964;2023-02-16T12:51:48;101885.63;;;8.01;100.00
15308;BME280;7755;52.208;6.964;2023-02-16T12:55:56;101860.59;;;7.99;100.00
15308;BME280;7755;52.208;6.964;2023-02-16T13:00:04;101861.06;;;8.02;100.00
15308;BME280;7755;52.208;6.964;2023-02-16T13:04:25;101851.69;;;8.05;100.00
15308;BME280;7755;52.208;6.964;2023-02-16T13:08:32;101864.84;;;8.08;100.00
15308;BME280;7755;52.208;6.964;2023-02-16T13:12:46;101835.28;;;8.06;100.00
15308;BME280;7755;52.208;6.964;2023-02-16T13:16:53;101827.63;;;8.16;100.00
15308;BME280;7755;52.208;6.964;2023-02-16T13:21:01;101809.78;;;8.29;100.00
15308;BME280;7755;52.208;6.964;2023-02-16T13:29:54;101789.16;;;8.56;100.00
15308;BME280;7755;52.208;6.964;2023-02-16T13:34:14;101778.56;;;8.67;100.00
15308;BME280;7755;52.208;6.964;2023-02-16T13:43:10;101770.34;;;8.95;100.00
15308;BME280;7755;52.208;6.964;2023-02-16T13:47:19;101768.47;;;9.02;100.00
15308;BME280;7755;52.208;6.964;2023-02-16T13:51:27;101762.88;;;9.11;100.00
15308;BME280;7755;52.208;6.964;2023-02-16T13:55:33;101761.63;;;9.20;100.00
15308;BME280;7755;52.208;6.964;2023-02-16T13:59:59;101761.03;;;9.38;100.00
15308;BME280;7755;52.208;6.964;2023-02-16T14:04:05;101753.94;;;9.37;100.00
15308;BME280;7755;52.208;6.964;2023-02-16T14:12:29;101742.66;;;9.46;100.00
15308;BME280;7755;52.208;6.964;2023-02-16T14:16:34;101741.22;;;9.57;100.00
15308;BME280;7755;52.208;6.964;2023-02-16T14:20:39;101747.06;;;9.67;100.00
15308;BME280;7755;52.208;6.964;2023-02-16T14:24:41;101748.72;;;9.68;100.00
15308;BME280;7755;52.208;6.964;2023-02-16T14:29:00;101761.06;;;9.64;100.00
15308;BME280;7755;52.208;6.964;2023-02-16T14:33:15;101748.53;;;9.63;100.00
15308;BME280;7755;52.208;6.964;2023-02-16T14:37:33;101741.84;;;9.59;100.00
15308;BME280;7755;52.208;6.964;2023-02-16T14:41:39;101721.16;;;9.71;100.00
15308;BME280;7755;52.208;6.964;2023-02-16T14:46:03;101715.53;;;9.73;100.00
15308;BME280;7755;52.208;6.964;2023-02-16T14:50:21;101705.72;;;9.72;100.00
15308;BME280;7755;52.208;6.964;2023-02-16T14:54:52;101697.56;;;9.65;100.00
15308;BME280;7755;52.208;6.964;2023-02-16T14:59:05;101710.94;;;9.67;100.00
15308;BME280;7755;52.208;6.964;2023-02-16T15:03:16;101709.25;;;9.72;100.00
15308;BME280;7755;52.208;6.964;2023-02-16T15:07:19;101710.31;;;9.65;100.00
15308;BME280;7755;52.208;6.964;2023-02-16T15:11:30;101702.56;;;9.55;100.00
15308;BME280;7755;52.208;6.964;2023-02-16T15:15:41;101700.28;;;9.52;100.00
15308;BME280;7755;52.208;6.964;2023-02-16T15:19:46;101708.88;;;9.55;100.00
15308;BME280;7755;52.208;6.964;2023-02-16T15:23:51;101709.03;;;9.61;100.00
15308;BME280;7755;52.208;6.964;2023-02-16T15:27:58;101703.22;;;9.64;100.00
15308;BME280;7755;52.208;6.964;2023-02-16T15:32:06;101703.44;;;9.62;100.00
15308;BME280;7755;52.208;6.964;2023-02-16T15:36:11;101701.72;;;9.61;100.00
15308;BME280;7755;52.208;6.964;2023-02-16T15:40:18;101697.78;;;9.64;100.00
15308;BME280;7755;52.208;6.964;2023-02-16T15:44:30;101682.94;;;9.60;100.00
15308;BME280;7755;52.208;6.964;2023-02-16T15:48:35;101666.88;;;9.58;100.00
15308;BME280;7755;52.208;6.964;2023-02-16T15:52:40;101668.75;;;9.64;100.00
15308;BME280;7755;52.208;6.964;2023-02-16T15:56:45;101681.72;;;9.69;100.00
15308;BME280;7755;52.208;6.964;2023-02-16T16:00:51;101680.00;;;9.68;100.00
15308;BME280;7755;52.208;6.964;2023-02-16T16:04:58;101680.22;;;9.66;100.00
15308;BME280;7755;52.208;6.964;2023-02-16T16:09:03;101678.34;;;9.67;100.00
15308;BME280;7755;52.208;6.964;2023-02-16T16:13:16;101676.69;;;9.66;100.00
15308;BME280;7755;52.208;6.964;2023-02-16T16:17:23;101679.00;;;9.69;100.00
15308;BME280;7755;52.208;6.964;2023-02-16T16:21:28;101670.84;;;9.69;100.00
15308;BME280;7755;52.208;6.964;2023-02-16T16:25:39;101662.88;;;9.67;100.00
15308;BME280;7755;52.208;6.964;2023-02-16T16:29:45;101659.34;;;9.67;100.00
15308;BME280;7755;52.208;6.964;2023-02-16T16:33:55;101656.84;;;9.65;100.00
15308;BME280;7755;52.208;6.964;2023-02-16T16:37:59;101648.06;;;9.63;100.00
15308;BME280;7755;52.208;6.964;2023-02-16T16:42:26;101640.97;;;9.62;100.00
15308;BME280;7755;52.208;6.964;2023-02-16T16:46:30;101642.84;;;9.62;100.00
15308;BME280;7755;52.208;6.964;2023-02-16T16:50:36;101643.69;;;9.62;100.00
15308;BME280;7755;52.208;6.964;2023-02-16T16:54:40;101636.56;;;9.61;100.00
15308;BME280;7755;52.208;6.964;2023-02-16T16:58:47;101647.66;;;9.60;100.00
15308;BME280;7755;52.208;6.964;2023-02-16T17:02:51;101635.97;;;9.59;100.00
15308;BME280;7755;52.208;6.964;2023-02-16T17:06:55;101622.16;;;9.61;100.00
15308;BME280;7755;52.208;6.964;2023-02-16T17:10:59;101631.16;;;9.61;100.00
15308;BME280;7755;52.208;6.964;2023-02-16T17:15:02;101631.78;;;9.63;100.00
15308;BME280;7755;52.208;6.964;2023-02-16T17:19:09;101625.72;;;9.61;100.00
15308;BME280;7755;52.208;6.964;2023-02-16T17:23:16;101618.63;;;9.60;100.00
15308;BME280;7755;52.208;6.964;2023-02-16T17:27:19;101614.03;;;9.61;100.00
15308;BME280;7755;52.208;6.964;2023-02-16T17:31:23;101615.91;;;9.60;100.00
15308;BME280;7755;52.208;6.964;2023-02-16T17:35:27;101616.34;;;9.64;100.00
15308;BME280;7755;52.208;6.964;2023-02-16T17:39:33;101614.84;;;9.61;100.00
15308;BME280;7755;52.208;6.964;2023-02-16T17:43:36;101612.97;;;9.62;100.00
15308;BME280;7755;52.208;6.964;2023-02-16T17:47:41;101612.56;;;9.65;100.00
15308;BME280;7755;52.208;6.964;2023-02-16T17:51:44;101604.19;;;9.66;100.00
15308;BME280;7755;52.208;6.964;2023-02-16T17:55:49;101599.38;;;9.68;100.00
15308;BME280;7755;52.208;6.964;2023-02-16T17:59:53;101605.03;;;9.67;100.00
15308;BME280;7755;52.208;6.964;2023-02-16T18:03:56;101605.88;;;9.67;100.00
15308;BME280;7755;52.208;6.964;2023-02-16T18:08:00;101606.09;;;9.66;100.00
15308;BME280;7755;52.208;6.964;2023-02-16T18:12:04;101602.75;;;9.64;100.00
15308;BME280;7755;52.208;6.964;2023-02-16T18:16:10;101592.72;;;9.64;100.00
15308;BME280;7755;52.208;6.964;2023-02-16T18:20:15;101607.13;;;9.65;100.00
15308;BME280;7755;52.208;6.964;2023-02-16T18:24:18;101586.03;;;9.67;100.00
15308;BME280;7755;52.208;6.964;2023-02-16T18:28:27;101584.13;;;9.67;100.00
15308;BME280;7755;52.208;6.964;2023-02-16T18:32:31;101576.81;;;9.68;100.00
15308;BME280;7755;52.208;6.964;2023-02-16T18:36:34;101575.16;;;9.67;100.00
15308;BME280;7755;52.208;6.964;2023-02-16T18:40:40;101575.81;;;9.69;100.00
15308;BME280;7755;52.208;6.964;2023-02-16T18:44:44;101571.81;;;9.71;100.00
15308;BME280;7755;52.208;6.964;2023-02-16T18:48:48;101569.72;;;9.73;100.00
15308;BME280;7755;52.208;6.964;2023-02-16T18:52:51;101569.31;;;9.76;100.00
15308;BME280;7755;52.208;6.964;2023-02-16T18:56:54;101577.22;;;9.78;100.00
15308;BME280;7755;52.208;6.964;2023-02-16T19:00:59;101568.47;;;9.76;100.00
15308;BME280;7755;52.208;6.964;2023-02-16T19:05:01;101582.66;;;9.78;100.00
15308;BME280;7755;52.208;6.964;2023-02-16T19:09:04;101581.59;;;9.79;100.00
15308;BME280;7755;52.208;6.964;2023-02-16T19:13:07;101573.47;;;9.79;100.00
15308;BME280;7755;52.208;6.964;2023-02-16T19:17:11;101569.09;;;9.78;100.00
15308;BME280;7755;52.208;6.964;2023-02-16T19:21:14;101582.44;;;9.79;100.00
15308;BME280;7755;52.208;6.964;2023-02-16T19:25:17;101565.94;;;9.81;100.00
15308;BME280;7755;52.208;6.964;2023-02-16T19:29:22;101564.69;;;9.83;100.00
15308;BME280;7755;52.208;6.964;2023-02-16T19:33:26;101560.09;;;9.77;100.00
15308;BME280;7755;52.208;6.964;2023-02-16T19:37:29;101551.50;;;9.80;100.00
15308;BME280;7755;52.208;6.964;2023-02-16T19:41:34;101542.72;;;9.85;100.00
15308;BME280;7755;52.208;6.964;2023-02-16T19:45:38;101565.50;;;9.84;100.00
15308;BME280;7755;52.208;6.964;2023-02-16T19:49:43;101566.34;;;9.84;100.00
15308;BME280;7755;52.208;6.964;2023-02-16T19:53:46;101555.69;;;9.83;100.00
15308;BME280;7755;52.208;6.964;2023-02-16T19:57:49;101570.94;;;9.84;100.00
15308;BME280;7755;52.208;6.964;2023-02-16T20:01:52;101567.19;;;9.78;100.00
15308;BME280;7755;52.208;6.964;2023-02-16T20:05:57;101561.75;;;9.78;100.00
15308;BME280;7755;52.208;6.964;2023-02-16T20:09:59;101563.03;;;9.82;100.00
15308;BME280;7755;52.208;6.964;2023-02-16T20:14:02;101558.00;;;9.79;100.00
15308;BME280;7755;52.208;6.964;2023-02-16T20:18:05;101557.59;;;9.76;100.00
15308;BME280;7755;52.208;6.964;2023-02-16T20:22:10;101566.59;;;9.76;100.00
15308;BME280;7755;52.208;6.964;2023-02-16T20:26:15;101560.50;;;9.74;100.00
15308;BME280;7755;52.208;6.964;2023-02-16T20:30:20;101560.75;;;9.73;100.00
15308;BME280;7755;52.208;6.964;2023-02-16T20:34:26;101563.03;;;9.76;100.00
15308;BME280;7755;52.208;6.964;2023-02-16T20:38:30;101553.41;;;9.73;100.00
15308;BME280;7755;52.208;6.964;2023-02-16T20:42:33;101548.41;;;9.77;100.00
15308;BME280;7755;52.208;6.964;2023-02-16T20:46:36;101546.75;;;9.76;100.00
15308;BME280;7755;52.208;6.964;2023-02-16T20:50:40;101539.22;;;9.78;100.00
15308;BME280;7755;52.208;6.964;2023-02-16T20:54:45;101542.16;;;9.76;100.00
15308;BME280;7755;52.208;6.964;2023-02-16T20:58:48;101539.81;;;9.80;100.00
15308;BME280;7755;52.208;6.964;2023-02-16T21:02:52;101535.44;;;9.79;100.00
15308;BME280;7755;52.208;6.964;2023-02-16T21:06:55;101541.28;;;9.82;100.00
15308;BME280;7755;52.208;6.964;2023-02-16T21:10:59;101544.84;;;9.83;100.00
15308;BME280;7755;52.208;6.964;2023-02-16T21:15:02;101524.34;;;9.80;100.00
15308;BME280;7755;52.208;6.964;2023-02-16T21:19:06;101537.53;;;9.83;100.00
15308;BME280;7755;52.208;6.964;2023-02-16T21:23:22;101515.97;;;9.82;100.00
15308;BME280;7755;52.208;6.964;2023-02-16T21:27:27;101520.59;;;9.81;100.00
15308;BME280;7755;52.208;6.964;2023-02-16T21:31:32;101513.50;;;9.80;100.00
15308;BME280;7755;52.208;6.964;2023-02-16T21:35:35;101510.78;;;9.80;100.00
15308;BME280;7755;52.208;6.964;2023-02-16T21:39:37;101507.22;;;9.80;100.00
15308;BME280;7755;52.208;6.964;2023-02-16T21:44:02;101514.78;;;9.78;100.00
15308;BME280;7755;52.208;6.964;2023-02-16T21:48:06;101511.84;;;9.79;100.00
15308;BME280;7755;52.208;6.964;2023-02-16T21:52:26;101503.91;;;9.78;100.00
15308;BME280;7755;52.208;6.964;2023-02-16T21:56:33;101500.97;;;9.79;100.00
15308;BME280;7755;52.208;6.964;2023-02-16T22:00:38;101507.88;;;9.75;100.00
15308;BME280;7755;52.208;6.964;2023-02-16T22:04:41;101502.25;;;9.77;100.00